Web Počasí Slunečno.cz™ (Podmínky, ePrivacy) používá cookies a personalizace pro reklamní účely. Pohybem po stránce vyjadřujete souhlas. Odejít

Aktuální počasí v Česku a ve světě - METAR

Seznam meteostanic umístěných nejčasteji na letišti v ČR a ve světě

Vyhledat místa podle abecedy:
A B C D E F G H I J K L M N O P Q R S T U V W X Y Z

Filtrovat:

ID stanice:
a/nebo
Název místa (fulltext):
 
Místo (ID)Naposledy načteno 
Gaborone (FBSK) 26.10.2021 14:00 UTC Zobrazit METAR
FBSK 261400Z 06008KT 9999 FEW030 29/12 Q1018 NOSIG
Gaza (LVGZ) Zatím nenačteno  
Geneva (LSGG) 26.10.2021 13:50 UTC Zobrazit METAR
LSGG 261350Z 05006KT 010V080 9999 FEW030 16/09 Q1023 NOSIG
George Town (MWCR) 26.10.2021 14:00 UTC Zobrazit METAR
MWCR 261400Z 12004KT 090V180 9999 FEW018 30/25 Q1015
Georgetown (SYCJ) 26.10.2021 14:00 UTC Zobrazit METAR
SYCJ 261400Z 12006KT 9999 SCT016 BKN080 29/25 Q1014 NOSIG
Gibraltar (LXGB) 26.10.2021 13:50 UTC Zobrazit METAR
LXGB 261350Z 08017KT 9999 FEW014 SCT048 BKN250 21/16 Q1019 NOSIG RMK BLU BLU
Glasgow (EGPF) 26.10.2021 12:50 UTC Zobrazit METAR
EGPF 261250Z AUTO 21021KT 9999 BKN012 OVC019 15/13 Q1003
Gomel (UMGG) 30.08.2014 17:00 UTC Zobrazit METAR
UMGG 301700Z CAVOK 19/10 Q1017 R28/CLRD// NOSIG
Goteborg (ESGG) 26.10.2021 13:50 UTC Zobrazit METAR
ESGG 261350Z 25009KT 9999 BKN015 BKN020 OVC030 09/06 Q1011
Grand Turk Island (MBGT) 25.10.2021 22:00 UTC Zobrazit METAR
MBGT 252200Z 10005KT 9999 SCT015 28/23 Q1015
Graz (LOWG) 26.10.2021 13:50 UTC Zobrazit METAR
LOWG 261350Z VRB01KT CAVOK 10/03 Q1023 NOSIG
Grodno (UMMG) Zatím nenačteno  
Guatemala City (MGGT) 26.10.2021 14:00 UTC Zobrazit METAR
MGGT 261400Z 05006KT 9999 BKN014 21/18 Q1023 A3021
Reklama

Reklama


Newslettter

Počasí na Váš email

Každý den Vám pošleme předpověď
Emaily chodí ráno a bez reklamy



Odhlásit newsletter


Další české internetové stránky o počasí najdete v katalogu TOPlist - weby o počasí nebo vyhledejte na internetu, co jste tu na Počasí Slunečno Slunečnu zatím nenašli:
Reklama